createdAt,value
2023-05-06T00:00:22.511Z,6.10
2023-05-06T00:03:10.517Z,6.10
2023-05-06T00:05:38.532Z,6.78
2023-05-06T00:08:06.738Z,6.20
2023-05-06T00:10:34.654Z,6.03
2023-05-06T00:13:02.641Z,6.50
2023-05-06T00:15:32.049Z,6.15
2023-05-06T00:18:01.305Z,6.05
2023-05-06T00:20:29.492Z,5.97
2023-05-06T00:22:57.802Z,6.10
2023-05-06T00:25:25.617Z,5.50
2023-05-06T00:27:54.001Z,5.10
2023-05-06T00:30:21.752Z,5.05
2023-05-06T00:32:49.806Z,5.00
2023-05-06T00:35:17.510Z,5.50
2023-05-06T00:37:58.737Z,6.03
2023-05-06T00:40:26.445Z,5.35
2023-05-06T00:42:54.392Z,5.35
2023-05-06T00:45:22.183Z,5.50
2023-05-06T00:47:50.276Z,4.95
2023-05-06T00:50:18.707Z,5.10
2023-05-06T00:52:47.370Z,5.32
2023-05-06T00:55:15.886Z,5.10
2023-05-06T00:57:44.325Z,5.47
2023-05-06T01:00:12.609Z,4.70
2023-05-06T01:02:46.961Z,4.72
2023-05-06T01:05:17.894Z,4.63
2023-05-06T01:08:11.613Z,4.65
2023-05-06T01:10:45.140Z,4.60
2023-05-06T01:13:30.885Z,5.07
2023-05-06T01:16:01.399Z,5.30
2023-05-06T01:18:32.594Z,5.10
2023-05-06T01:21:01.939Z,5.38
2023-05-06T01:23:30.162Z,4.80
2023-05-06T01:25:57.798Z,5.10
2023-05-06T01:28:25.880Z,4.80
2023-05-06T01:30:53.612Z,4.78
2023-05-06T01:33:32.809Z,4.70
2023-05-06T01:36:11.634Z,4.68
2023-05-06T01:38:51.672Z,4.70
2023-05-06T01:41:21.070Z,4.43
2023-05-06T01:43:52.828Z,4.45
2023-05-06T01:46:23.674Z,4.82
2023-05-06T01:48:55.223Z,5.07
2023-05-06T01:51:24.934Z,4.80
2023-05-06T01:53:53.004Z,4.45
2023-05-06T01:56:20.741Z,4.60
2023-05-06T01:58:48.768Z,5.22
2023-05-06T02:01:16.545Z,4.32
2023-05-06T02:03:44.546Z,4.90
2023-05-06T02:06:12.373Z,4.35
2023-05-06T02:08:43.477Z,4.68
2023-05-06T02:11:16.292Z,4.85
2023-05-06T02:13:44.423Z,4.57
2023-05-06T02:16:12.284Z,4.70
2023-05-06T02:18:41.480Z,4.25
2023-05-06T02:21:10.879Z,5.30
2023-05-06T02:23:38.862Z,4.53
2023-05-06T02:26:06.526Z,4.18
2023-05-06T02:28:34.411Z,4.38
2023-05-06T02:31:02.100Z,4.38
2023-05-06T02:33:30.124Z,4.25
2023-05-06T02:35:57.772Z,4.25
2023-05-06T02:38:25.830Z,5.15
2023-05-06T02:40:54.371Z,4.50
2023-05-06T02:43:23.251Z,4.18
2023-05-06T02:45:51.204Z,4.43
2023-05-06T02:48:20.160Z,4.30
2023-05-06T02:50:47.831Z,4.28
2023-05-06T02:53:15.905Z,4.53
2023-05-06T02:55:43.687Z,5.18
2023-05-06T02:58:11.611Z,4.05
2023-05-06T03:00:39.267Z,4.60
2023-05-06T03:03:07.346Z,4.30
2023-05-06T03:05:35.204Z,4.20
2023-05-06T03:08:03.208Z,4.40
2023-05-06T03:10:31.972Z,4.30
2023-05-06T03:13:02.022Z,4.22
2023-05-06T03:15:30.474Z,4.05
2023-05-06T03:17:58.451Z,4.78
2023-05-06T03:20:28.877Z,4.28
2023-05-06T03:22:59.650Z,4.32
2023-05-06T03:25:27.752Z,4.10
2023-05-06T03:27:56.921Z,4.32
2023-05-06T03:30:25.120Z,4.20
2023-05-06T03:32:57.176Z,4.60
2023-05-06T03:35:30.891Z,4.22
2023-05-06T03:38:00.785Z,4.15
2023-05-06T03:40:36.470Z,4.20
2023-05-06T03:43:04.972Z,4.05
2023-05-06T03:45:33.704Z,4.30
2023-05-06T03:48:04.236Z,4.85
2023-05-06T03:50:34.202Z,3.70
2023-05-06T03:53:02.216Z,4.20
2023-05-06T03:55:32.963Z,4.35
2023-05-06T03:58:02.005Z,3.97
2023-05-06T04:00:29.757Z,4.50
2023-05-06T04:02:57.901Z,4.82
2023-05-06T04:05:36.567Z,4.13
2023-05-06T04:08:05.371Z,4.20
2023-05-06T04:10:33.056Z,4.18
2023-05-06T04:13:07.714Z,4.07
2023-05-06T04:18:18.999Z,4.03
2023-05-06T04:20:55.294Z,4.10
2023-05-06T04:23:23.432Z,4.40
2023-05-06T04:25:51.244Z,4.65
2023-05-06T04:28:21.849Z,4.47
2023-05-06T04:30:52.899Z,4.82
2023-05-06T04:33:24.361Z,4.20
2023-05-06T04:35:53.909Z,5.10
2023-05-06T04:38:25.764Z,5.03
2023-05-06T04:40:55.477Z,3.97
2023-05-06T04:43:23.703Z,4.00
2023-05-06T04:48:31.037Z,4.00
2023-05-06T04:51:00.608Z,4.43
2023-05-06T04:53:29.173Z,4.30
2023-05-06T04:55:56.916Z,4.15
2023-05-06T04:58:25.043Z,4.68
2023-05-06T05:00:52.940Z,4.35
2023-05-06T05:03:21.093Z,4.15
2023-05-06T05:05:48.916Z,4.80
2023-05-06T05:08:20.293Z,4.03
2023-05-06T05:10:48.265Z,4.07
2023-05-06T05:13:21.604Z,4.10
2023-05-06T05:15:54.630Z,4.00
2023-05-06T05:18:24.394Z,4.45
2023-05-06T05:20:55.898Z,4.05
2023-05-06T05:23:24.136Z,4.03
2023-05-06T05:25:51.838Z,4.18
2023-05-06T05:28:19.933Z,4.00
2023-05-06T05:30:48.171Z,3.95
2023-05-06T05:33:16.279Z,3.97
2023-05-06T05:35:44.835Z,3.90
2023-05-06T05:38:14.394Z,4.07
2023-05-06T05:40:42.328Z,3.92
2023-05-06T05:43:10.633Z,4.38
2023-05-06T05:45:40.952Z,4.65
2023-05-06T05:48:11.034Z,4.63
2023-05-06T05:50:39.226Z,4.30
2023-05-06T05:53:07.698Z,4.53
2023-05-06T05:55:37.515Z,4.10
2023-05-06T05:58:06.636Z,3.70
2023-05-06T06:00:35.142Z,3.83
2023-05-06T06:03:11.528Z,4.00
2023-05-06T06:05:40.263Z,3.80
2023-05-06T06:08:08.779Z,3.83
2023-05-06T06:10:36.661Z,3.67
2023-05-06T06:13:11.219Z,3.58
2023-05-06T06:15:38.930Z,3.63
2023-05-06T06:18:08.800Z,3.38
2023-05-06T06:20:38.382Z,3.65
2023-05-06T06:23:06.339Z,3.30
2023-05-06T06:25:34.012Z,3.45
2023-05-06T06:28:01.979Z,3.72
2023-05-06T06:30:29.765Z,3.58
2023-05-06T06:32:58.984Z,3.80
2023-05-06T06:35:27.356Z,3.50
2023-05-06T06:37:55.507Z,3.90
2023-05-06T06:40:23.614Z,4.10
2023-05-06T06:42:51.691Z,3.50
2023-05-06T06:45:32.630Z,3.53
2023-05-06T06:48:00.728Z,3.15
2023-05-06T06:50:28.367Z,3.47
2023-05-06T06:52:56.363Z,3.20
2023-05-06T06:55:24.081Z,3.33
2023-05-06T06:57:52.098Z,3.47
2023-05-06T07:00:19.703Z,2.78
2023-05-06T07:02:48.697Z,3.30
2023-05-06T07:05:16.665Z,2.58
2023-05-06T07:07:44.618Z,3.00
2023-05-06T07:10:12.365Z,3.33
2023-05-06T07:12:40.332Z,2.72
2023-05-06T07:15:09.178Z,3.25
2023-05-06T07:17:37.477Z,2.47
2023-05-06T07:20:05.767Z,3.33
2023-05-06T07:22:33.779Z,2.63
2023-05-06T07:25:01.463Z,2.88
2023-05-06T07:27:30.886Z,2.75
2023-05-06T07:29:58.765Z,2.95
2023-05-06T07:32:26.963Z,2.40
2023-05-06T07:34:54.718Z,2.85
2023-05-06T07:37:22.707Z,2.45
2023-05-06T07:39:50.898Z,2.17
2023-05-06T07:42:18.795Z,2.50
2023-05-06T07:44:46.413Z,2.65
2023-05-06T07:47:26.216Z,2.33
2023-05-06T07:49:54.662Z,2.85
2023-05-06T07:52:23.569Z,2.28
2023-05-06T07:54:51.466Z,2.45
2023-05-06T07:57:19.356Z,2.83
2023-05-06T07:59:52.034Z,2.60
2023-05-06T08:02:20.073Z,2.40
2023-05-06T08:04:49.501Z,2.35
2023-05-06T08:07:19.141Z,2.58
2023-05-06T08:09:46.784Z,2.20
2023-05-06T08:12:15.887Z,2.00
2023-05-06T08:14:43.629Z,1.92
2023-05-06T08:17:13.238Z,2.10
2023-05-06T08:19:41.036Z,2.20
2023-05-06T08:22:09.014Z,2.25
2023-05-06T08:24:36.738Z,2.28
2023-05-06T08:27:05.015Z,2.05
2023-05-06T08:29:32.701Z,2.42
2023-05-06T08:32:01.580Z,1.98
2023-05-06T08:34:29.388Z,2.00
2023-05-06T08:36:57.337Z,2.10
2023-05-06T08:39:25.100Z,2.30
2023-05-06T08:41:54.434Z,2.22
2023-05-06T08:44:24.826Z,2.47
2023-05-06T08:46:53.018Z,2.28
2023-05-06T08:49:21.157Z,2.30
2023-05-06T08:51:52.474Z,2.03
2023-05-06T08:54:20.180Z,2.13
2023-05-06T08:56:53.995Z,2.40
2023-05-06T08:59:25.974Z,2.38
2023-05-06T09:01:54.016Z,2.50
2023-05-06T09:04:22.226Z,2.40
2023-05-06T09:06:50.406Z,2.60
2023-05-06T09:09:18.096Z,2.00
2023-05-06T09:11:46.071Z,2.33
2023-05-06T09:14:17.910Z,2.25
2023-05-06T09:16:49.523Z,2.20
2023-05-06T09:19:19.848Z,2.35
2023-05-06T09:21:50.373Z,1.95
2023-05-06T09:24:18.434Z,2.15
2023-05-06T09:26:47.361Z,2.20
2023-05-06T09:29:15.193Z,2.65
2023-05-06T09:31:47.792Z,2.00
2023-05-06T09:34:17.942Z,2.55
2023-05-06T09:36:46.007Z,2.38
2023-05-06T09:39:13.759Z,2.00
2023-05-06T09:41:42.566Z,2.47
2023-05-06T09:44:11.556Z,2.50
2023-05-06T09:46:41.356Z,2.10
2023-05-06T09:49:10.264Z,1.90
2023-05-06T09:51:38.921Z,2.22
2023-05-06T09:54:07.598Z,2.03
2023-05-06T09:56:36.793Z,2.33
2023-05-06T09:59:05.920Z,2.45
2023-05-06T10:01:37.215Z,2.25
2023-05-06T10:04:11.112Z,2.53
2023-05-06T10:06:43.026Z,2.35
2023-05-06T10:09:11.499Z,2.72
2023-05-06T10:11:40.549Z,3.22
2023-05-06T10:14:09.270Z,2.42
2023-05-06T10:16:40.462Z,2.20
2023-05-06T10:19:09.393Z,2.50
2023-05-06T10:21:45.231Z,2.72
2023-05-06T10:24:17.270Z,2.38
2023-05-06T10:26:48.900Z,2.63
2023-05-06T10:29:17.560Z,2.60
2023-05-06T10:31:52.591Z,2.70
2023-05-06T10:34:22.773Z,2.60
2023-05-06T10:36:57.991Z,2.80
2023-05-06T10:39:26.590Z,2.47
2023-05-06T10:41:54.714Z,2.42
2023-05-06T10:44:58.191Z,2.70
2023-05-06T10:47:27.023Z,2.40
2023-05-06T10:50:20.607Z,2.58
2023-05-06T10:52:55.420Z,2.83
2023-05-06T10:55:33.244Z,2.50
2023-05-06T10:58:04.364Z,3.15
2023-05-06T11:00:33.516Z,3.08
2023-05-06T11:03:11.118Z,2.95
2023-05-06T11:05:50.145Z,2.95
2023-05-06T11:08:26.108Z,2.72
2023-05-06T11:10:54.826Z,3.00
2023-05-06T11:13:26.657Z,3.20
2023-05-06T11:15:56.250Z,3.05
2023-05-06T11:18:27.937Z,2.85
2023-05-06T11:21:03.783Z,2.95
2023-05-06T11:23:46.997Z,2.90
2023-05-06T11:26:15.377Z,2.95
2023-05-06T11:28:45.409Z,2.90
2023-05-06T11:31:14.693Z,3.47
2023-05-06T11:33:55.153Z,2.95
2023-05-06T11:36:22.953Z,2.92
2023-05-06T11:38:52.940Z,2.35
2023-05-06T11:41:23.085Z,2.67
2023-05-06T11:43:52.696Z,2.83
2023-05-06T11:46:22.264Z,2.78
2023-05-06T11:48:50.849Z,2.40
2023-05-06T11:51:25.051Z,2.50
2023-05-06T11:54:15.619Z,3.05
2023-05-06T11:56:48.282Z,3.08
2023-05-06T11:59:18.523Z,3.67
2023-05-06T12:01:46.881Z,2.80
2023-05-06T12:04:14.908Z,2.80
2023-05-06T12:06:42.704Z,3.10
2023-05-06T12:09:13.598Z,3.10
2023-05-06T12:11:44.303Z,2.70
2023-05-06T12:14:13.307Z,3.20
2023-05-06T12:16:42.336Z,2.92
2023-05-06T12:19:10.965Z,3.17
2023-05-06T12:21:39.324Z,3.42
2023-05-06T12:24:07.582Z,3.55
2023-05-06T12:26:49.431Z,4.68
2023-05-06T12:29:18.102Z,4.00
2023-05-06T12:31:47.423Z,3.88
2023-05-06T12:34:17.920Z,3.13
2023-05-06T12:36:48.794Z,3.63
2023-05-06T12:39:17.635Z,3.38
2023-05-06T12:41:46.479Z,3.60
2023-05-06T12:44:38.339Z,3.50
2023-05-06T12:47:10.520Z,3.75
2023-05-06T12:49:47.225Z,3.80
2023-05-06T12:52:15.986Z,4.07
2023-05-06T12:54:44.382Z,3.67
2023-05-06T12:57:12.104Z,4.40
2023-05-06T12:59:40.968Z,3.80
2023-05-06T13:02:08.690Z,3.85
2023-05-06T13:04:36.698Z,4.03
2023-05-06T13:07:04.426Z,3.58
2023-05-06T13:09:32.785Z,3.90
2023-05-06T13:12:01.295Z,4.30
2023-05-06T13:14:29.287Z,5.20
2023-05-06T13:17:00.419Z,4.53
2023-05-06T13:19:32.945Z,8.02
2023-05-06T13:22:01.757Z,8.05
2023-05-06T13:24:30.805Z,8.77
2023-05-06T13:27:00.959Z,8.27
2023-05-06T13:29:29.823Z,6.80
2023-05-06T13:31:57.833Z,7.53
2023-05-06T13:34:26.140Z,6.50
2023-05-06T13:36:54.882Z,6.43
2023-05-06T13:39:23.504Z,6.70
2023-05-06T13:41:51.751Z,7.95
2023-05-06T13:44:20.742Z,7.22
2023-05-06T13:46:48.944Z,7.40
2023-05-06T13:49:17.044Z,7.88
2023-05-06T13:51:44.801Z,7.15
2023-05-06T13:54:12.792Z,8.13
2023-05-06T13:56:40.522Z,8.40
2023-05-06T13:59:10.064Z,9.13
2023-05-06T14:01:38.452Z,9.55
2023-05-06T14:04:06.533Z,9.43
2023-05-06T14:06:34.189Z,9.25
2023-05-06T14:09:02.122Z,9.65
2023-05-06T14:11:29.891Z,9.55
2023-05-06T14:13:57.913Z,9.07
2023-05-06T14:16:25.604Z,9.00
2023-05-06T14:18:53.669Z,9.48
2023-05-06T14:21:21.995Z,9.15
2023-05-06T14:23:49.945Z,7.88
2023-05-06T14:26:17.807Z,8.45
2023-05-06T14:28:45.774Z,8.25
2023-05-06T14:31:13.539Z,8.55
2023-05-06T14:33:41.603Z,8.75
2023-05-06T14:36:09.453Z,8.57
2023-05-06T14:38:37.519Z,7.95
2023-05-06T14:41:05.189Z,8.15
2023-05-06T14:43:33.169Z,8.10
2023-05-06T14:46:01.073Z,8.75
2023-05-06T14:48:29.097Z,7.90
2023-05-06T14:50:56.728Z,8.13
2023-05-06T14:53:24.670Z,8.18
2023-05-06T14:55:52.324Z,9.98
2023-05-06T14:58:20.257Z,8.60
2023-05-06T15:00:47.970Z,8.25
2023-05-06T15:03:15.965Z,7.55
2023-05-06T15:05:43.890Z,7.85
2023-05-06T15:08:11.819Z,7.90
2023-05-06T15:10:40.773Z,8.80
2023-05-06T15:13:09.033Z,7.43
2023-05-06T15:15:36.814Z,7.45
2023-05-06T15:18:05.039Z,8.20
2023-05-06T15:20:32.823Z,8.60
2023-05-06T15:23:00.819Z,9.63
2023-05-06T15:25:35.701Z,9.82
2023-05-06T15:28:05.613Z,10.32
2023-05-06T15:30:33.432Z,10.35
2023-05-06T15:33:02.853Z,9.45
2023-05-06T15:35:31.802Z,9.52
2023-05-06T15:38:00.158Z,9.73
2023-05-06T15:40:28.274Z,8.05
2023-05-06T15:42:56.828Z,8.25
2023-05-06T15:45:24.663Z,8.57
2023-05-06T15:47:54.146Z,8.50
2023-05-06T15:50:32.954Z,9.50
2023-05-06T15:53:02.860Z,9.55
2023-05-06T15:55:35.252Z,10.77
2023-05-06T15:58:11.671Z,11.93
2023-05-06T16:00:39.415Z,11.35
2023-05-06T16:03:10.886Z,11.57
2023-05-06T16:05:40.069Z,13.25
2023-05-06T16:08:08.200Z,10.93
2023-05-06T16:10:35.926Z,9.50
2023-05-06T16:13:03.903Z,8.88
2023-05-06T16:15:31.596Z,8.93
2023-05-06T16:17:59.719Z,9.65
2023-05-06T16:20:27.461Z,9.15
2023-05-06T16:22:55.438Z,8.85
2023-05-06T16:25:23.626Z,9.70
2023-05-06T16:27:51.786Z,10.23
2023-05-06T16:30:19.460Z,10.50
2023-05-06T16:32:47.818Z,10.70
2023-05-06T16:35:17.701Z,9.77
2023-05-06T16:37:46.182Z,10.15
2023-05-06T16:40:18.472Z,9.82
2023-05-06T16:42:47.128Z,9.70
2023-05-06T16:45:14.897Z,8.90
2023-05-06T16:47:44.607Z,9.68
2023-05-06T16:50:13.068Z,9.43
2023-05-06T16:52:41.522Z,9.77
2023-05-06T16:55:09.628Z,10.70
2023-05-06T16:57:37.674Z,10.63
2023-05-06T17:00:08.399Z,9.70
2023-05-06T17:02:36.547Z,11.02
2023-05-06T17:05:04.563Z,10.05
2023-05-06T17:07:32.529Z,9.90
2023-05-06T17:10:00.688Z,9.82
2023-05-06T17:12:28.768Z,10.32
2023-05-06T17:14:56.601Z,9.65
2023-05-06T17:17:28.520Z,9.35
2023-05-06T17:19:57.590Z,9.45
2023-05-06T17:22:26.477Z,9.95
2023-05-06T17:24:54.399Z,10.27
2023-05-06T17:27:22.414Z,9.45
2023-05-06T17:29:50.336Z,9.20
2023-05-06T17:32:19.887Z,10.05
2023-05-06T17:34:47.714Z,10.38
2023-05-06T17:37:15.984Z,10.00
2023-05-06T17:39:43.752Z,9.85
2023-05-06T17:42:11.786Z,10.20
2023-05-06T17:44:40.269Z,9.57
2023-05-06T17:47:08.812Z,10.70
2023-05-06T17:49:36.669Z,10.25
2023-05-06T17:52:04.868Z,9.77
2023-05-06T17:54:32.683Z,10.85
2023-05-06T17:57:03.385Z,11.55
2023-05-06T17:59:31.216Z,10.13
2023-05-06T18:02:00.395Z,10.07
2023-05-06T18:04:28.154Z,9.80
2023-05-06T18:06:57.094Z,9.35
2023-05-06T18:09:24.698Z,9.52
2023-05-06T18:11:52.715Z,10.90
2023-05-06T18:14:20.571Z,10.70
2023-05-06T18:16:48.509Z,9.75
2023-05-06T18:19:16.148Z,10.25
2023-05-06T18:21:45.946Z,9.45
2023-05-06T18:24:16.316Z,9.25
2023-05-06T18:26:46.059Z,10.23
2023-05-06T18:29:14.279Z,9.27
2023-05-06T18:31:42.614Z,9.63
2023-05-06T18:34:10.569Z,10.02
2023-05-06T18:36:38.875Z,10.18
2023-05-06T18:39:07.333Z,8.13
2023-05-06T18:41:35.702Z,8.95
2023-05-06T18:44:04.632Z,8.73
2023-05-06T18:46:32.827Z,9.32
2023-05-06T18:49:01.071Z,9.45
2023-05-06T18:51:29.108Z,9.38
2023-05-06T18:53:56.797Z,9.02
2023-05-06T18:56:24.713Z,9.30
2023-05-06T18:58:52.867Z,10.60
2023-05-06T19:01:21.168Z,9.82
2023-05-06T19:03:49.016Z,9.40
2023-05-06T19:06:17.104Z,9.75
2023-05-06T19:08:44.780Z,9.68
2023-05-06T19:11:16.942Z,8.82
2023-05-06T19:13:46.649Z,8.82
2023-05-06T19:16:14.914Z,9.80
2023-05-06T19:18:42.707Z,9.18
2023-05-06T19:21:11.878Z,8.77
2023-05-06T19:23:39.709Z,9.98
2023-05-06T19:26:10.962Z,8.88
2023-05-06T19:28:40.273Z,9.50
2023-05-06T19:31:10.296Z,9.38
2023-05-06T19:33:42.533Z,9.82
2023-05-06T19:36:11.070Z,9.27
2023-05-06T19:38:38.838Z,8.52
2023-05-06T19:41:08.421Z,8.85
2023-05-06T19:43:42.159Z,9.60
2023-05-06T19:48:41.541Z,9.38
2023-05-06T19:51:09.575Z,9.63
2023-05-06T19:53:37.458Z,9.43
2023-05-06T19:56:12.664Z,9.10
2023-05-06T19:58:41.522Z,8.40
2023-05-06T20:01:09.941Z,8.75
2023-05-06T20:03:38.172Z,9.38
2023-05-06T20:06:06.931Z,10.23
2023-05-06T20:08:35.569Z,8.73
2023-05-06T20:11:03.752Z,9.18
2023-05-06T20:13:31.679Z,8.75
2023-05-06T20:15:59.814Z,8.90
2023-05-06T20:18:27.565Z,8.07
2023-05-06T20:20:56.307Z,8.55
2023-05-06T20:23:23.925Z,7.60
2023-05-06T20:25:52.011Z,8.30
2023-05-06T20:28:19.864Z,8.52
2023-05-06T20:30:48.898Z,8.90
2023-05-06T20:33:16.689Z,8.32
2023-05-06T20:35:44.662Z,9.15
2023-05-06T20:38:12.447Z,9.15
2023-05-06T20:40:40.681Z,8.38
2023-05-06T20:43:08.409Z,8.35
2023-05-06T20:45:36.406Z,8.40
2023-05-06T20:48:04.276Z,8.52
2023-05-06T20:50:32.286Z,8.77
2023-05-06T20:53:01.668Z,9.27
2023-05-06T20:55:29.640Z,8.35
2023-05-06T20:57:57.342Z,8.50
2023-05-06T21:00:25.466Z,8.02
2023-05-06T21:02:53.297Z,8.35
2023-05-06T21:05:21.389Z,9.07
2023-05-06T21:07:49.036Z,7.88
2023-05-06T21:10:17.063Z,8.77
2023-05-06T21:12:48.704Z,8.02
2023-05-06T21:15:17.340Z,8.35
2023-05-06T21:17:45.247Z,8.35
2023-05-06T21:20:13.561Z,8.15
2023-05-06T21:22:41.165Z,7.82
2023-05-06T21:25:09.826Z,8.10
2023-05-06T21:27:37.668Z,7.82
2023-05-06T21:30:06.492Z,8.18
2023-05-06T21:32:34.249Z,8.57
2023-05-06T21:35:03.300Z,8.45
2023-05-06T21:37:31.011Z,8.65
2023-05-06T21:40:00.108Z,8.27
2023-05-06T21:42:28.335Z,8.43
2023-05-06T21:44:56.348Z,8.73
2023-05-06T21:47:24.095Z,8.13
2023-05-06T21:49:52.044Z,8.20
2023-05-06T21:52:19.706Z,8.98
2023-05-06T21:54:47.787Z,8.23
2023-05-06T21:57:15.524Z,7.70
2023-05-06T21:59:43.449Z,8.02
2023-05-06T22:02:11.158Z,8.05
2023-05-06T22:04:39.086Z,7.45
2023-05-06T22:07:07.050Z,7.25
2023-05-06T22:09:34.944Z,7.10
2023-05-06T22:12:06.597Z,7.45
2023-05-06T22:14:40.888Z,7.25
2023-05-06T22:17:10.513Z,7.20
2023-05-06T22:19:39.046Z,7.03
2023-05-06T22:22:07.023Z,6.72
2023-05-06T22:24:35.123Z,8.15
2023-05-06T22:27:03.397Z,7.13
2023-05-06T22:29:31.398Z,6.80
2023-05-06T22:31:59.106Z,6.25
2023-05-06T22:34:27.293Z,7.05
2023-05-06T22:36:54.869Z,7.03
2023-05-06T22:39:22.904Z,6.72
2023-05-06T22:41:50.962Z,6.63
2023-05-06T22:44:18.920Z,6.80
2023-05-06T22:46:46.804Z,6.45
2023-05-06T22:49:15.990Z,6.90
2023-05-06T22:51:43.725Z,6.53
2023-05-06T22:54:11.821Z,5.97
2023-05-06T22:56:39.463Z,7.15
2023-05-06T22:59:07.462Z,6.32
2023-05-06T23:01:35.198Z,6.60
2023-05-06T23:04:03.454Z,7.30
2023-05-06T23:06:31.754Z,6.88
2023-05-06T23:08:59.814Z,6.63
2023-05-06T23:11:27.453Z,6.53
2023-05-06T23:13:55.372Z,6.47
2023-05-06T23:16:23.561Z,6.05
2023-05-06T23:18:51.551Z,5.63
2023-05-06T23:21:19.223Z,6.15
2023-05-06T23:23:47.121Z,5.53
2023-05-06T23:26:15.013Z,6.35
2023-05-06T23:28:42.958Z,6.05
2023-05-06T23:31:10.716Z,5.57
2023-05-06T23:33:38.696Z,6.10
2023-05-06T23:36:06.676Z,5.90
2023-05-06T23:38:34.585Z,6.10
2023-05-06T23:41:02.293Z,5.82
2023-05-06T23:43:30.768Z,6.10
2023-05-06T23:45:58.503Z,6.05
2023-05-06T23:48:26.458Z,5.57
2023-05-06T23:50:54.581Z,6.05
2023-05-06T23:53:22.806Z,6.15
2023-05-06T23:55:50.637Z,5.95
2023-05-06T23:58:18.582Z,6.18
